sensor_id;sensor_type;location;lat;lon;timestamp;pressure;altitude;pressure_sealevel;temperature;humidity
12969;BME280;6549;53.128;8.182;2023-02-17T00:01:44;101463.69;;;8.61;100.00
12969;BME280;6549;53.128;8.182;2023-02-17T00:04:44;101462.09;;;8.60;100.00
12969;BME280;6549;53.128;8.182;2023-02-17T00:07:44;101457.41;;;8.60;100.00
12969;BME280;6549;53.128;8.182;2023-02-17T00:10:54;101450.47;;;8.63;100.00
12969;BME280;6549;53.128;8.182;2023-02-17T00:13:56;101453.63;;;8.65;100.00
12969;BME280;6549;53.128;8.182;2023-02-17T00:16:56;101461.91;;;8.68;100.00
12969;BME280;6549;53.128;8.182;2023-02-17T00:19:57;101454.16;;;8.70;100.00
12969;BME280;6549;53.128;8.182;2023-02-17T00:22:57;101456.97;;;8.74;100.00
12969;BME280;6549;53.128;8.182;2023-02-17T00:25:57;101457.75;;;8.74;100.00
12969;BME280;6549;53.128;8.182;2023-02-17T00:28:57;101447.16;;;8.73;100.00
12969;BME280;6549;53.128;8.182;2023-02-17T00:31:58;101455.03;;;8.74;100.00
12969;BME280;6549;53.128;8.182;2023-02-17T00:34:58;101443.72;;;8.76;100.00
12969;BME280;6549;53.128;8.182;2023-02-17T00:37:59;101434.25;;;8.73;100.00
12969;BME280;6549;53.128;8.182;2023-02-17T00:40:59;101429.91;;;8.72;100.00
12969;BME280;6549;53.128;8.182;2023-02-17T00:43:59;101425.69;;;8.75;100.00
12969;BME280;6549;53.128;8.182;2023-02-17T00:47:00;101426.81;;;8.74;100.00
12969;BME280;6549;53.128;8.182;2023-02-17T00:50:00;101431.88;;;8.72;100.00
12969;BME280;6549;53.128;8.182;2023-02-17T00:53:00;101419.31;;;8.71;100.00
12969;BME280;6549;53.128;8.182;2023-02-17T00:56:01;101434.31;;;8.77;100.00
12969;BME280;6549;53.128;8.182;2023-02-17T00:59:01;101424.88;;;8.74;100.00
12969;BME280;6549;53.128;8.182;2023-02-17T01:02:02;101422.56;;;8.76;100.00
12969;BME280;6549;53.128;8.182;2023-02-17T01:05:02;101421.81;;;8.76;100.00
12969;BME280;6549;53.128;8.182;2023-02-17T01:08:03;101424.97;;;8.78;100.00
12969;BME280;6549;53.128;8.182;2023-02-17T01:11:03;101428.03;;;8.76;100.00
12969;BME280;6549;53.128;8.182;2023-02-17T01:14:04;101420.34;;;8.82;100.00
12969;BME280;6549;53.128;8.182;2023-02-17T01:17:05;101420.28;;;8.78;100.00
12969;BME280;6549;53.128;8.182;2023-02-17T01:20:06;101419.94;;;8.80;100.00
12969;BME280;6549;53.128;8.182;2023-02-17T01:23:07;101421.88;;;8.79;100.00
12969;BME280;6549;53.128;8.182;2023-02-17T01:26:12;101425.84;;;8.82;100.00
12969;BME280;6549;53.128;8.182;2023-02-17T01:29:13;101409.38;;;8.82;100.00
12969;BME280;6549;53.128;8.182;2023-02-17T01:32:13;101405.97;;;8.85;100.00
12969;BME280;6549;53.128;8.182;2023-02-17T01:35:13;101412.13;;;8.82;100.00
12969;BME280;6549;53.128;8.182;2023-02-17T01:38:13;101405.56;;;8.86;100.00
12969;BME280;6549;53.128;8.182;2023-02-17T01:41:15;101393.41;;;8.84;100.00
12969;BME280;6549;53.128;8.182;2023-02-17T01:44:18;101384.44;;;8.87;100.00
12969;BME280;6549;53.128;8.182;2023-02-17T01:47:19;101377.81;;;8.88;100.00
12969;BME280;6549;53.128;8.182;2023-02-17T01:50:23;101380.56;;;8.88;100.00
12969;BME280;6549;53.128;8.182;2023-02-17T01:53:32;101373.06;;;8.85;100.00
12969;BME280;6549;53.128;8.182;2023-02-17T01:56:37;101356.31;;;8.90;100.00
12969;BME280;6549;53.128;8.182;2023-02-17T01:59:40;101364.53;;;8.90;100.00
12969;BME280;6549;53.128;8.182;2023-02-17T02:02:43;101372.00;;;8.89;100.00
12969;BME280;6549;53.128;8.182;2023-02-17T02:05:45;101375.16;;;8.91;100.00
12969;BME280;6549;53.128;8.182;2023-02-17T02:08:58;101363.84;;;8.93;100.00
12969;BME280;6549;53.128;8.182;2023-02-17T02:12:01;101365.00;;;8.92;100.00
12969;BME280;6549;53.128;8.182;2023-02-17T02:15:14;101360.66;;;8.91;100.00
12969;BME280;6549;53.128;8.182;2023-02-17T02:18:27;101365.00;;;8.92;100.00
12969;BME280;6549;53.128;8.182;2023-02-17T02:21:43;101351.28;;;8.92;100.00
12969;BME280;6549;53.128;8.182;2023-02-17T02:28:20;101348.53;;;8.92;100.00
12969;BME280;6549;53.128;8.182;2023-02-17T02:35:06;101337.13;;;8.90;100.00
12969;BME280;6549;53.128;8.182;2023-02-17T02:38:14;101341.47;;;8.91;100.00
12969;BME280;6549;53.128;8.182;2023-02-17T02:41:22;101341.53;;;8.94;100.00
12969;BME280;6549;53.128;8.182;2023-02-17T02:44:24;101346.22;;;8.94;100.00
12969;BME280;6549;53.128;8.182;2023-02-17T02:47:50;101341.19;;;8.96;100.00
12969;BME280;6549;53.128;8.182;2023-02-17T02:51:09;101336.84;;;8.95;100.00
12969;BME280;6549;53.128;8.182;2023-02-17T03:00:33;101318.53;;;8.99;100.00
12969;BME280;6549;53.128;8.182;2023-02-17T03:06:52;101308.00;;;9.01;100.00
12969;BME280;6549;53.128;8.182;2023-02-17T03:09:56;101306.84;;;9.02;100.00
12969;BME280;6549;53.128;8.182;2023-02-17T03:13:00;101305.69;;;9.03;100.00
12969;BME280;6549;53.128;8.182;2023-02-17T03:16:01;101302.59;;;9.05;100.00
12969;BME280;6549;53.128;8.182;2023-02-17T03:19:02;101297.03;;;9.01;100.00
12969;BME280;6549;53.128;8.182;2023-02-17T03:22:18;101284.53;;;9.03;100.00
12969;BME280;6549;53.128;8.182;2023-02-17T03:25:20;101274.38;;;9.04;100.00
12969;BME280;6549;53.128;8.182;2023-02-17T03:28:21;101276.72;;;9.02;100.00
12969;BME280;6549;53.128;8.182;2023-02-17T03:31:21;101277.91;;;9.05;100.00
12969;BME280;6549;53.128;8.182;2023-02-17T03:34:22;101262.63;;;9.03;100.00
12969;BME280;6549;53.128;8.182;2023-02-17T03:37:22;101272.44;;;9.05;100.00
12969;BME280;6549;53.128;8.182;2023-02-17T03:40:22;101258.38;;;9.06;100.00
12969;BME280;6549;53.128;8.182;2023-02-17T03:43:23;101260.31;;;9.06;100.00
12969;BME280;6549;53.128;8.182;2023-02-17T03:46:23;101254.09;;;9.09;100.00
12969;BME280;6549;53.128;8.182;2023-02-17T03:49:23;101256.25;;;9.19;100.00
12969;BME280;6549;53.128;8.182;2023-02-17T03:52:24;101253.47;;;9.15;100.00
12969;BME280;6549;53.128;8.182;2023-02-17T03:55:24;101247.88;;;9.12;100.00
12969;BME280;6549;53.128;8.182;2023-02-17T03:58:24;101244.78;;;9.13;100.00
12969;BME280;6549;53.128;8.182;2023-02-17T04:01:24;101234.97;;;9.12;100.00
12969;BME280;6549;53.128;8.182;2023-02-17T04:04:25;101234.25;;;9.15;100.00
12969;BME280;6549;53.128;8.182;2023-02-17T04:07:25;101225.25;;;9.15;100.00
12969;BME280;6549;53.128;8.182;2023-02-17T04:10:25;101226.84;;;9.16;100.00
12969;BME280;6549;53.128;8.182;2023-02-17T04:13:26;101215.78;;;9.12;100.00
12969;BME280;6549;53.128;8.182;2023-02-17T04:16:26;101195.88;;;9.15;100.00
12969;BME280;6549;53.128;8.182;2023-02-17T04:19:27;101187.22;;;9.13;100.00
12969;BME280;6549;53.128;8.182;2023-02-17T04:22:27;101177.78;;;9.11;100.00
12969;BME280;6549;53.128;8.182;2023-02-17T04:25:27;101171.06;;;9.08;100.00
12969;BME280;6549;53.128;8.182;2023-02-17T04:28:28;101170.34;;;9.11;100.00
12969;BME280;6549;53.128;8.182;2023-02-17T04:31:28;101171.56;;;9.14;100.00
12969;BME280;6549;53.128;8.182;2023-02-17T04:34:28;101186.84;;;9.15;100.00
12969;BME280;6549;53.128;8.182;2023-02-17T04:37:29;101182.53;;;9.14;100.00
12969;BME280;6549;53.128;8.182;2023-02-17T04:40:29;101181.44;;;9.18;100.00
12969;BME280;6549;53.128;8.182;2023-02-17T04:43:30;101170.75;;;9.13;100.00
12969;BME280;6549;53.128;8.182;2023-02-17T04:46:30;101177.94;;;9.21;100.00
12969;BME280;6549;53.128;8.182;2023-02-17T04:49:30;101182.28;;;9.22;100.00
12969;BME280;6549;53.128;8.182;2023-02-17T04:52:30;101170.50;;;9.22;100.00
12969;BME280;6549;53.128;8.182;2023-02-17T04:55:31;101176.78;;;9.22;100.00
12969;BME280;6549;53.128;8.182;2023-02-17T04:58:32;101168.22;;;9.24;100.00
12969;BME280;6549;53.128;8.182;2023-02-17T05:01:32;101157.31;;;9.27;100.00
12969;BME280;6549;53.128;8.182;2023-02-17T05:04:32;101154.13;;;9.25;100.00
12969;BME280;6549;53.128;8.182;2023-02-17T05:07:33;101156.16;;;9.28;100.00
12969;BME280;6549;53.128;8.182;2023-02-17T05:10:33;101153.75;;;9.27;100.00
12969;BME280;6549;53.128;8.182;2023-02-17T05:13:33;101157.34;;;9.31;100.00
12969;BME280;6549;53.128;8.182;2023-02-17T05:16:34;101144.06;;;9.33;100.00
12969;BME280;6549;53.128;8.182;2023-02-17T05:19:34;101138.94;;;9.31;100.00
12969;BME280;6549;53.128;8.182;2023-02-17T05:22:34;101139.75;;;9.32;100.00
12969;BME280;6549;53.128;8.182;2023-02-17T05:25:35;101134.25;;;9.32;100.00
12969;BME280;6549;53.128;8.182;2023-02-17T05:28:36;101122.94;;;9.33;100.00
12969;BME280;6549;53.128;8.182;2023-02-17T05:31:36;101123.78;;;9.37;100.00
12969;BME280;6549;53.128;8.182;2023-02-17T05:34:36;101134.31;;;9.35;100.00
12969;BME280;6549;53.128;8.182;2023-02-17T05:37:37;101124.50;;;9.34;100.00
12969;BME280;6549;53.128;8.182;2023-02-17T05:40:37;101124.50;;;9.34;100.00
12969;BME280;6549;53.128;8.182;2023-02-17T05:43:37;101119.75;;;9.31;100.00
12969;BME280;6549;53.128;8.182;2023-02-17T05:46:37;101123.69;;;9.34;100.00
12969;BME280;6549;53.128;8.182;2023-02-17T05:49:38;101114.25;;;9.31;100.00
12969;BME280;6549;53.128;8.182;2023-02-17T05:52:38;101110.69;;;9.27;100.00
12969;BME280;6549;53.128;8.182;2023-02-17T05:55:38;101121.34;;;9.32;100.00
12969;BME280;6549;53.128;8.182;2023-02-17T05:58:39;101112.31;;;9.32;100.00
12969;BME280;6549;53.128;8.182;2023-02-17T06:01:39;101108.84;;;9.35;100.00
12969;BME280;6549;53.128;8.182;2023-02-17T06:04:39;101092.75;;;9.33;100.00
12969;BME280;6549;53.128;8.182;2023-02-17T06:07:39;101083.00;;;9.36;100.00
12969;BME280;6549;53.128;8.182;2023-02-17T06:10:40;101074.34;;;9.34;100.00
12969;BME280;6549;53.128;8.182;2023-02-17T06:13:41;101074.72;;;9.32;100.00
12969;BME280;6549;53.128;8.182;2023-02-17T06:16:41;101076.72;;;9.35;100.00
12969;BME280;6549;53.128;8.182;2023-02-17T06:19:41;101072.28;;;9.27;100.00
12969;BME280;6549;53.128;8.182;2023-02-17T06:22:42;101089.47;;;9.24;100.00
12969;BME280;6549;53.128;8.182;2023-02-17T06:25:42;101075.03;;;9.27;100.00
12969;BME280;6549;53.128;8.182;2023-02-17T06:28:43;101078.94;;;9.26;100.00
12969;BME280;6549;53.128;8.182;2023-02-17T06:31:43;101064.06;;;9.27;100.00
12969;BME280;6549;53.128;8.182;2023-02-17T06:34:43;101076.78;;;9.16;100.00
12969;BME280;6549;53.128;8.182;2023-02-17T06:37:43;101064.59;;;9.10;100.00
12969;BME280;6549;53.128;8.182;2023-02-17T06:40:44;101073.16;;;9.09;100.00
12969;BME280;6549;53.128;8.182;2023-02-17T06:43:44;101062.25;;;9.12;100.00
12969;BME280;6549;53.128;8.182;2023-02-17T06:46:44;101064.19;;;9.12;100.00
12969;BME280;6549;53.128;8.182;2023-02-17T06:49:45;101057.47;;;9.06;100.00
12969;BME280;6549;53.128;8.182;2023-02-17T06:52:46;101057.81;;;9.04;100.00
12969;BME280;6549;53.128;8.182;2023-02-17T06:55:46;101059.84;;;9.07;100.00
12969;BME280;6549;53.128;8.182;2023-02-17T06:58:46;101067.56;;;9.01;100.00
12969;BME280;6549;53.128;8.182;2023-02-17T07:01:47;101066.47;;;9.06;100.00
12969;BME280;6549;53.128;8.182;2023-02-17T07:04:48;101063.75;;;9.06;100.00
12969;BME280;6549;53.128;8.182;2023-02-17T07:07:49;101068.38;;;9.02;100.00
12969;BME280;6549;53.128;8.182;2023-02-17T07:10:52;101067.63;;;9.05;100.00
12969;BME280;6549;53.128;8.182;2023-02-17T07:13:52;101061.34;;;9.05;100.00
12969;BME280;6549;53.128;8.182;2023-02-17T07:16:53;101058.97;;;9.03;100.00
12969;BME280;6549;53.128;8.182;2023-02-17T07:19:53;101054.66;;;9.02;100.00
12969;BME280;6549;53.128;8.182;2023-02-17T07:36:37;101045.78;;;9.12;100.00
12969;BME280;6549;53.128;8.182;2023-02-17T07:39:37;101042.66;;;9.10;100.00
12969;BME280;6549;53.128;8.182;2023-02-17T07:42:38;101039.97;;;9.14;100.00
12969;BME280;6549;53.128;8.182;2023-02-17T07:45:38;101038.00;;;9.14;100.00
12969;BME280;6549;53.128;8.182;2023-02-17T07:48:39;101022.31;;;9.11;100.00
12969;BME280;6549;53.128;8.182;2023-02-17T07:51:39;101019.31;;;9.20;100.00
12969;BME280;6549;53.128;8.182;2023-02-17T07:54:40;101018.47;;;9.16;100.00
12969;BME280;6549;53.128;8.182;2023-02-17T07:57:40;101015.31;;;9.17;100.00
12969;BME280;6549;53.128;8.182;2023-02-17T08:00:40;101016.13;;;9.18;100.00
12969;BME280;6549;53.128;8.182;2023-02-17T08:03:41;101015.00;;;9.22;100.00
12969;BME280;6549;53.128;8.182;2023-02-17T08:06:42;101016.56;;;9.20;100.00
12969;BME280;6549;53.128;8.182;2023-02-17T08:09:42;101004.13;;;9.29;100.00
12969;BME280;6549;53.128;8.182;2023-02-17T08:13:01;101002.19;;;9.30;100.00
12969;BME280;6549;53.128;8.182;2023-02-17T08:16:19;100995.50;;;9.27;100.00
12969;BME280;6549;53.128;8.182;2023-02-17T08:19:20;100993.25;;;9.33;100.00
12969;BME280;6549;53.128;8.182;2023-02-17T08:22:20;100988.19;;;9.38;100.00
12969;BME280;6549;53.128;8.182;2023-02-17T08:25:21;100999.53;;;9.33;100.00
12969;BME280;6549;53.128;8.182;2023-02-17T08:28:21;100980.78;;;9.39;100.00
12969;BME280;6549;53.128;8.182;2023-02-17T08:31:24;100992.22;;;9.44;100.00
12969;BME280;6549;53.128;8.182;2023-02-17T08:34:25;100998.06;;;9.43;100.00
12969;BME280;6549;53.128;8.182;2023-02-17T08:37:25;101000.53;;;9.52;100.00
12969;BME280;6549;53.128;8.182;2023-02-17T08:40:25;100995.75;;;9.45;100.00
12969;BME280;6549;53.128;8.182;2023-02-17T08:43:26;100982.81;;;9.45;100.00
12969;BME280;6549;53.128;8.182;2023-02-17T08:46:26;100973.81;;;9.45;100.00
12969;BME280;6549;53.128;8.182;2023-02-17T08:49:27;100984.41;;;9.46;100.00
12969;BME280;6549;53.128;8.182;2023-02-17T08:52:29;100981.78;;;9.57;100.00
12969;BME280;6549;53.128;8.182;2023-02-17T08:55:29;100973.53;;;9.54;100.00
12969;BME280;6549;53.128;8.182;2023-02-17T08:58:29;100977.09;;;9.58;100.00
12969;BME280;6549;53.128;8.182;2023-02-17T09:01:30;100982.28;;;9.66;100.00
12969;BME280;6549;53.128;8.182;2023-02-17T09:04:31;100977.59;;;9.67;100.00
12969;BME280;6549;53.128;8.182;2023-02-17T09:07:31;100976.06;;;9.69;100.00
12969;BME280;6549;53.128;8.182;2023-02-17T09:10:31;100983.91;;;9.71;100.00
12969;BME280;6549;53.128;8.182;2023-02-17T09:13:33;100973.03;;;9.78;100.00
12969;BME280;6549;53.128;8.182;2023-02-17T09:16:34;100962.47;;;9.80;100.00
12969;BME280;6549;53.128;8.182;2023-02-17T09:19:37;100986.03;;;9.84;100.00
12969;BME280;6549;53.128;8.182;2023-02-17T09:22:38;100993.91;;;9.86;100.00
12969;BME280;6549;53.128;8.182;2023-02-17T09:25:38;100979.41;;;9.85;100.00
12969;BME280;6549;53.128;8.182;2023-02-17T09:28:39;100973.94;;;9.89;100.00
12969;BME280;6549;53.128;8.182;2023-02-17T09:31:39;100968.94;;;9.98;100.00
12969;BME280;6549;53.128;8.182;2023-02-17T09:34:40;100958.03;;;10.05;100.00
12969;BME280;6549;53.128;8.182;2023-02-17T09:37:47;100936.81;;;10.02;100.00
12969;BME280;6549;53.128;8.182;2023-02-17T09:40:48;100945.13;;;10.09;100.00
12969;BME280;6549;53.128;8.182;2023-02-17T09:43:50;100935.72;;;10.10;100.00
12969;BME280;6549;53.128;8.182;2023-02-17T09:47:02;100932.69;;;10.19;100.00
12969;BME280;6549;53.128;8.182;2023-02-17T09:50:11;100901.34;;;10.23;100.00
12969;BME280;6549;53.128;8.182;2023-02-17T09:53:27;100910.00;;;10.22;100.00
12969;BME280;6549;53.128;8.182;2023-02-17T09:56:35;100900.56;;;10.23;100.00
12969;BME280;6549;53.128;8.182;2023-02-17T09:59:51;100916.69;;;10.28;100.00
12969;BME280;6549;53.128;8.182;2023-02-17T10:02:58;100922.63;;;10.33;100.00
12969;BME280;6549;53.128;8.182;2023-02-17T10:06:11;100915.22;;;10.38;100.00
12969;BME280;6549;53.128;8.182;2023-02-17T10:09:21;100920.34;;;10.43;100.00
12969;BME280;6549;53.128;8.182;2023-02-17T10:12:26;100918.75;;;10.38;100.00
12969;BME280;6549;53.128;8.182;2023-02-17T10:15:39;100932.50;;;10.42;100.00
12969;BME280;6549;53.128;8.182;2023-02-17T10:18:45;100944.75;;;10.51;100.00
12969;BME280;6549;53.128;8.182;2023-02-17T10:21:56;100943.59;;;10.52;100.00
12969;BME280;6549;53.128;8.182;2023-02-17T10:24:59;100943.19;;;10.54;100.00
12969;BME280;6549;53.128;8.182;2023-02-17T10:28:03;100949.50;;;10.58;100.00
12969;BME280;6549;53.128;8.182;2023-02-17T10:31:43;100970.75;;;10.61;100.00
12969;BME280;6549;53.128;8.182;2023-02-17T10:35:30;100969.97;;;10.60;100.00
12969;BME280;6549;53.128;8.182;2023-02-17T10:41:35;100990.38;;;10.63;100.00
12969;BME280;6549;53.128;8.182;2023-02-17T10:44:37;100979.03;;;10.68;100.00
12969;BME280;6549;53.128;8.182;2023-02-17T10:47:38;100976.38;;;10.75;100.00
12969;BME280;6549;53.128;8.182;2023-02-17T10:50:41;100978.75;;;10.80;100.00
12969;BME280;6549;53.128;8.182;2023-02-17T10:53:46;100974.81;;;10.81;100.00
12969;BME280;6549;53.128;8.182;2023-02-17T10:56:49;100957.94;;;10.79;100.00
12969;BME280;6549;53.128;8.182;2023-02-17T10:59:51;100957.94;;;10.79;100.00
12969;BME280;6549;53.128;8.182;2023-02-17T11:02:51;100981.19;;;10.89;100.00
12969;BME280;6549;53.128;8.182;2023-02-17T11:05:57;100992.22;;;10.92;100.00
12969;BME280;6549;53.128;8.182;2023-02-17T11:09:05;100973.34;;;10.91;100.00
12969;BME280;6549;53.128;8.182;2023-02-17T11:12:13;100965.53;;;10.96;100.00
12969;BME280;6549;53.128;8.182;2023-02-17T11:15:19;100957.66;;;10.95;100.00
12969;BME280;6549;53.128;8.182;2023-02-17T11:18:26;100960.41;;;10.95;100.00
12969;BME280;6549;53.128;8.182;2023-02-17T11:21:28;100949.38;;;10.88;100.00
12969;BME280;6549;53.128;8.182;2023-02-17T11:24:31;100954.50;;;10.93;100.00
12969;BME280;6549;53.128;8.182;2023-02-17T11:27:32;100964.72;;;10.92;100.00
12969;BME280;6549;53.128;8.182;2023-02-17T11:30:33;100954.88;;;10.91;100.00
12969;BME280;6549;53.128;8.182;2023-02-17T11:33:37;100943.47;;;10.89;100.00
12969;BME280;6549;53.128;8.182;2023-02-17T11:36:38;100916.75;;;10.90;100.00
12969;BME280;6549;53.128;8.182;2023-02-17T11:39:41;100962.69;;;10.86;100.00
12969;BME280;6549;53.128;8.182;2023-02-17T11:42:42;100953.69;;;10.89;100.00
12969;BME280;6549;53.128;8.182;2023-02-17T11:45:50;100945.03;;;10.87;100.00
12969;BME280;6549;53.128;8.182;2023-02-17T11:49:03;100942.28;;;10.87;100.00
12969;BME280;6549;53.128;8.182;2023-02-17T11:56:16;100957.97;;;10.86;100.00
12969;BME280;6549;53.128;8.182;2023-02-17T11:59:37;100946.19;;;10.86;100.00
12969;BME280;6549;53.128;8.182;2023-02-17T12:06:26;100946.13;;;10.75;100.00
12969;BME280;6549;53.128;8.182;2023-02-17T12:09:48;100954.72;;;10.70;100.00
12969;BME280;6549;53.128;8.182;2023-02-17T12:13:05;100953.16;;;10.69;100.00
12969;BME280;6549;53.128;8.182;2023-02-17T12:20:28;100952.34;;;10.65;100.00
12969;BME280;6549;53.128;8.182;2023-02-17T12:23:45;100950.34;;;10.62;100.00
12969;BME280;6549;53.128;8.182;2023-02-17T12:30:18;100970.34;;;10.59;100.00
12969;BME280;6549;53.128;8.182;2023-02-17T12:33:37;100967.59;;;10.59;100.00
12969;BME280;6549;53.128;8.182;2023-02-17T12:36:42;100974.22;;;10.54;100.00
12969;BME280;6549;53.128;8.182;2023-02-17T12:39:52;100983.69;;;10.57;100.00
12969;BME280;6549;53.128;8.182;2023-02-17T12:42:57;100973.47;;;10.57;100.00
12969;BME280;6549;53.128;8.182;2023-02-17T12:46:02;100966.00;;;10.58;100.00
12969;BME280;6549;53.128;8.182;2023-02-17T12:49:18;100980.16;;;10.60;100.00
12969;BME280;6549;53.128;8.182;2023-02-17T12:52:29;100983.72;;;10.64;100.00
12969;BME280;6549;53.128;8.182;2023-02-17T12:55:54;100972.38;;;10.65;100.00
12969;BME280;6549;53.128;8.182;2023-02-17T12:59:17;100979.84;;;10.72;100.00
12969;BME280;6549;53.128;8.182;2023-02-17T13:02:24;100959.09;;;10.78;100.00
12969;BME280;6549;53.128;8.182;2023-02-17T13:05:33;100963.44;;;10.79;100.00
12969;BME280;6549;53.128;8.182;2023-02-17T13:08:52;100972.53;;;10.87;100.00
12969;BME280;6549;53.128;8.182;2023-02-17T13:15:33;100944.69;;;10.95;100.00
12969;BME280;6549;53.128;8.182;2023-02-17T13:18:39;100958.09;;;11.00;100.00
12969;BME280;6549;53.128;8.182;2023-02-17T13:21:54;100967.97;;;11.12;100.00
12969;BME280;6549;53.128;8.182;2023-02-17T13:24:55;100944.03;;;11.16;100.00
12969;BME280;6549;53.128;8.182;2023-02-17T13:27:59;100981.38;;;11.20;100.00
12969;BME280;6549;53.128;8.182;2023-02-17T13:34:30;100962.16;;;11.24;100.00
12969;BME280;6549;53.128;8.182;2023-02-17T13:40:36;100968.81;;;11.19;100.00
12969;BME280;6549;53.128;8.182;2023-02-17T13:43:40;100951.94;;;11.24;100.00
12969;BME280;6549;53.128;8.182;2023-02-17T13:46:42;100966.47;;;11.28;100.00
12969;BME280;6549;53.128;8.182;2023-02-17T13:49:50;100953.94;;;11.27;100.00
12969;BME280;6549;53.128;8.182;2023-02-17T13:52:51;100966.13;;;11.34;100.00
12969;BME280;6549;53.128;8.182;2023-02-17T13:55:54;100974.41;;;11.37;100.00
12969;BME280;6549;53.128;8.182;2023-02-17T13:59:05;100973.63;;;11.40;100.00
12969;BME280;6549;53.128;8.182;2023-02-17T14:02:19;100955.56;;;11.43;100.00
12969;BME280;6549;53.128;8.182;2023-02-17T14:08:37;100975.25;;;11.45;100.00
12969;BME280;6549;53.128;8.182;2023-02-17T14:11:38;100968.16;;;11.51;100.00
12969;BME280;6549;53.128;8.182;2023-02-17T14:14:40;100974.06;;;11.49;100.00
12969;BME280;6549;53.128;8.182;2023-02-17T14:17:40;100981.53;;;11.49;100.00
12969;BME280;6549;53.128;8.182;2023-02-17T14:20:41;100987.47;;;11.54;100.00
12969;BME280;6549;53.128;8.182;2023-02-17T14:23:47;100992.63;;;11.63;100.00
12969;BME280;6549;53.128;8.182;2023-02-17T14:26:48;100999.72;;;11.67;100.00
12969;BME280;6549;53.128;8.182;2023-02-17T14:29:49;100986.41;;;11.77;100.00
12969;BME280;6549;53.128;8.182;2023-02-17T14:33:21;100984.06;;;11.79;100.00
12969;BME280;6549;53.128;8.182;2023-02-17T14:36:34;100988.44;;;11.90;100.00
12969;BME280;6549;53.128;8.182;2023-02-17T14:39:35;100990.41;;;11.93;100.00
12969;BME280;6549;53.128;8.182;2023-02-17T14:42:35;100999.09;;;11.99;100.00
12969;BME280;6549;53.128;8.182;2023-02-17T14:45:36;100977.06;;;12.02;100.00
12969;BME280;6549;53.128;8.182;2023-02-17T14:48:36;100993.59;;;12.02;100.00
12969;BME280;6549;53.128;8.182;2023-02-17T14:51:37;101023.44;;;11.93;100.00
12969;BME280;6549;53.128;8.182;2023-02-17T14:54:38;101018.31;;;11.88;100.00
12969;BME280;6549;53.128;8.182;2023-02-17T14:57:38;101025.41;;;11.89;100.00
12969;BME280;6549;53.128;8.182;2023-02-17T15:00:38;101041.06;;;11.78;100.00
12969;BME280;6549;53.128;8.182;2023-02-17T15:03:39;101035.19;;;11.80;100.00
12969;BME280;6549;53.128;8.182;2023-02-17T15:06:42;101037.59;;;11.88;100.00
12969;BME280;6549;53.128;8.182;2023-02-17T15:09:44;101039.97;;;11.90;100.00
12969;BME280;6549;53.128;8.182;2023-02-17T15:12:46;101061.53;;;11.77;100.00
12969;BME280;6549;53.128;8.182;2023-02-17T15:15:46;101059.16;;;11.72;100.00
12969;BME280;6549;53.128;8.182;2023-02-17T15:18:48;101047.78;;;11.77;100.00
12969;BME280;6549;53.128;8.182;2023-02-17T15:21:50;101072.47;;;11.70;100.00
12969;BME280;6549;53.128;8.182;2023-02-17T15:24:51;101060.25;;;11.64;100.00
12969;BME280;6549;53.128;8.182;2023-02-17T15:27:52;101092.44;;;11.53;100.00
12969;BME280;6549;53.128;8.182;2023-02-17T15:30:53;101095.03;;;11.32;100.00
12969;BME280;6549;53.128;8.182;2023-02-17T15:33:55;101108.63;;;11.10;100.00
12969;BME280;6549;53.128;8.182;2023-02-17T15:37:00;101106.16;;;10.98;100.00
12969;BME280;6549;53.128;8.182;2023-02-17T15:40:00;101135.19;;;10.92;100.00
12969;BME280;6549;53.128;8.182;2023-02-17T15:43:01;101146.44;;;10.80;100.00
12969;BME280;6549;53.128;8.182;2023-02-17T15:46:08;101129.38;;;10.64;100.00
12969;BME280;6549;53.128;8.182;2023-02-17T15:49:10;101152.84;;;10.58;100.00
12969;BME280;6549;53.128;8.182;2023-02-17T15:52:12;101158.25;;;10.47;100.00
12969;BME280;6549;53.128;8.182;2023-02-17T15:55:13;101168.47;;;10.50;100.00
12969;BME280;6549;53.128;8.182;2023-02-17T15:58:15;101167.94;;;10.38;100.00
12969;BME280;6549;53.128;8.182;2023-02-17T16:01:32;101187.81;;;10.27;100.00
12969;BME280;6549;53.128;8.182;2023-02-17T16:04:32;101184.56;;;10.18;100.00
12969;BME280;6549;53.128;8.182;2023-02-17T16:07:32;101201.34;;;10.13;100.00
12969;BME280;6549;53.128;8.182;2023-02-17T16:10:34;101188.13;;;9.96;100.00
12969;BME280;6549;53.128;8.182;2023-02-17T16:13:35;101211.59;;;9.90;100.00
12969;BME280;6549;53.128;8.182;2023-02-17T16:16:35;101218.47;;;9.77;100.00
12969;BME280;6549;53.128;8.182;2023-02-17T16:19:35;101226.88;;;9.65;100.00
12969;BME280;6549;53.128;8.182;2023-02-17T16:22:35;101247.22;;;9.60;100.00
12969;BME280;6549;53.128;8.182;2023-02-17T16:25:36;101259.56;;;9.51;100.00
12969;BME280;6549;53.128;8.182;2023-02-17T16:28:36;101253.91;;;9.40;100.00
12969;BME280;6549;53.128;8.182;2023-02-17T16:31:37;101264.81;;;9.36;100.00
12969;BME280;6549;53.128;8.182;2023-02-17T16:34:38;101265.41;;;9.26;100.00
12969;BME280;6549;53.128;8.182;2023-02-17T16:37:38;101278.59;;;9.21;100.00
12969;BME280;6549;53.128;8.182;2023-02-17T16:40:40;101276.09;;;9.12;100.00
12969;BME280;6549;53.128;8.182;2023-02-17T16:43:46;101279.00;;;9.00;100.00
12969;BME280;6549;53.128;8.182;2023-02-17T16:46:48;101285.91;;;8.94;100.00
12969;BME280;6549;53.128;8.182;2023-02-17T16:49:49;101289.03;;;8.92;100.00
12969;BME280;6549;53.128;8.182;2023-02-17T16:52:52;101304.09;;;8.83;100.00
12969;BME280;6549;53.128;8.182;2023-02-17T16:55:54;101313.19;;;8.87;100.00
12969;BME280;6549;53.128;8.182;2023-02-17T16:58:55;101318.25;;;8.85;100.00
12969;BME280;6549;53.128;8.182;2023-02-17T17:01:55;101330.91;;;8.74;100.00
12969;BME280;6549;53.128;8.182;2023-02-17T17:04:55;101336.09;;;8.60;100.00
12969;BME280;6549;53.128;8.182;2023-02-17T17:07:56;101354.66;;;8.50;100.00
12969;BME280;6549;53.128;8.182;2023-02-17T17:10:56;101363.94;;;8.46;100.00